createdAt,value
2018-11-02T00:00:41.636Z,8.46
2018-11-02T00:01:51.618Z,8.36
2018-11-02T00:03:01.619Z,8.34
2018-11-02T00:04:11.356Z,8.38
2018-11-02T00:05:21.081Z,8.39
2018-11-02T00:06:31.258Z,8.36
2018-11-02T00:07:41.920Z,8.39
2018-11-02T00:08:51.906Z,8.35
2018-11-02T00:10:01.620Z,8.28
2018-11-02T00:11:11.346Z,8.35
2018-11-02T00:12:21.685Z,8.32
2018-11-02T00:13:31.718Z,8.17
2018-11-02T00:14:41.692Z,8.36
2018-11-02T00:15:51.730Z,8.31
2018-11-02T00:17:01.692Z,8.39
2018-11-02T00:18:11.160Z,8.34
2018-11-02T00:19:21.140Z,8.26
2018-11-02T00:20:31.123Z,8.32
2018-11-02T00:21:41.088Z,8.18
2018-11-02T00:22:51.129Z,8.26
2018-11-02T00:24:01.166Z,8.09
2018-11-02T00:25:10.875Z,8.09
2018-11-02T00:26:20.835Z,8.03
2018-11-02T00:27:30.550Z,8.05
2018-11-02T00:28:40.907Z,8.02
2018-11-02T00:29:51.469Z,8.11
2018-11-02T00:31:01.952Z,7.96
2018-11-02T00:32:11.464Z,8.05
2018-11-02T00:33:20.917Z,8.03
2018-11-02T00:34:30.388Z,8.02
2018-11-02T00:35:40.349Z,8.02
2018-11-02T00:36:50.313Z,8.02
2018-11-02T00:38:00.021Z,7.95
2018-11-02T00:39:09.722Z,7.9
2018-11-02T00:40:19.191Z,7.91
2018-11-02T00:41:28.897Z,7.95
2018-11-02T00:42:38.622Z,7.95
2018-11-02T00:43:48.446Z,7.87
2018-11-02T00:44:58.536Z,7.93
2018-11-02T00:46:08.261Z,7.98
2018-11-02T00:47:18.234Z,7.88
2018-11-02T00:48:27.942Z,7.85
2018-11-02T00:49:37.945Z,7.87
2018-11-02T00:50:47.982Z,7.95
2018-11-02T00:51:58.281Z,8.01
2018-11-02T00:53:08.107Z,7.99
2018-11-02T00:54:17.570Z,8.01
2018-11-02T00:55:26.772Z,7.96
2018-11-02T00:56:36.547Z,8.02
2018-11-02T00:57:46.261Z,7.91
2018-11-02T00:58:56.248Z,7.96
2018-11-02T01:00:05.962Z,8.01
2018-11-02T01:01:15.934Z,7.96
2018-11-02T01:02:25.653Z,7.91
2018-11-02T01:03:35.366Z,7.88
2018-11-02T01:04:45.471Z,7.95
2018-11-02T01:05:55.446Z,7.9
2018-11-02T01:07:04.639Z,7.83
2018-11-02T01:08:14.648Z,7.88
2018-11-02T01:09:24.115Z,7.96
2018-11-02T01:10:34.097Z,7.96
2018-11-02T01:11:44.064Z,7.85
2018-11-02T01:12:54.030Z,7.88
2018-11-02T01:14:04.017Z,7.93
2018-11-02T01:15:13.782Z,7.98
2018-11-02T01:16:24.057Z,7.96
2018-11-02T01:17:34.441Z,7.91
2018-11-02T01:18:44.101Z,7.88
2018-11-02T01:19:53.823Z,8.02
2018-11-02T01:21:03.566Z,8.02
2018-11-02T01:22:13.026Z,7.93
2018-11-02T01:23:22.843Z,8.02
2018-11-02T01:24:32.298Z,7.99
2018-11-02T01:25:41.735Z,7.95
2018-11-02T01:26:51.765Z,7.83
2018-11-02T01:28:00.945Z,7.88
2018-11-02T01:29:10.376Z,7.85
2018-11-02T01:30:19.821Z,7.8
2018-11-02T01:31:29.528Z,7.77
2018-11-02T01:32:39.068Z,7.78
2018-11-02T01:33:48.244Z,7.81
2018-11-02T01:34:58.221Z,7.78
2018-11-02T01:36:08.203Z,7.84
2018-11-02T01:37:18.164Z,7.77
2018-11-02T01:38:27.653Z,7.74
2018-11-02T01:39:37.876Z,7.8
2018-11-02T01:40:47.604Z,7.75
2018-11-02T01:41:58.520Z,7.8
2018-11-02T01:43:07.694Z,7.7
2018-11-02T01:44:17.404Z,7.72
2018-11-02T01:45:27.129Z,7.64
2018-11-02T01:46:36.817Z,7.58
2018-11-02T01:47:46.271Z,7.62
2018-11-02T01:48:56.002Z,7.59
2018-11-02T01:50:05.452Z,7.66
2018-11-02T01:51:15.422Z,7.61
2018-11-02T01:52:25.402Z,7.66
2018-11-02T01:53:35.087Z,7.61
2018-11-02T01:54:45.067Z,7.61
2018-11-02T01:55:55.040Z,7.61
2018-11-02T01:57:04.753Z,7.61
2018-11-02T01:58:14.778Z,7.48
2018-11-02T01:59:24.595Z,7.53
2018-11-02T02:00:34.287Z,7.53
2018-11-02T02:01:44.011Z,7.51
2018-11-02T02:02:54.374Z,7.51
2018-11-02T02:04:04.378Z,7.53
2018-11-02T02:05:14.347Z,7.5
2018-11-02T02:06:24.298Z,7.46
2018-11-02T02:07:34.262Z,7.55
2018-11-02T02:08:43.969Z,7.53
2018-11-02T02:09:53.692Z,7.48
2018-11-02T02:11:03.402Z,7.46
2018-11-02T02:12:13.384Z,7.51
2018-11-02T02:13:23.656Z,7.41
2018-11-02T02:14:33.916Z,7.43
2018-11-02T02:15:43.882Z,7.47
2018-11-02T02:16:53.631Z,7.48
2018-11-02T02:18:03.409Z,7.47
2018-11-02T02:19:12.840Z,7.41
2018-11-02T02:20:22.571Z,7.46
2018-11-02T02:21:32.544Z,7.5
2018-11-02T02:22:42.318Z,7.44
2018-11-02T02:23:52.067Z,7.48
2018-11-02T02:25:02.288Z,7.47
2018-11-02T02:26:12.156Z,7.48
2018-11-02T02:27:22.450Z,7.51
2018-11-02T02:28:32.158Z,7.48
2018-11-02T02:29:41.337Z,7.55
2018-11-02T02:30:51.317Z,7.47
2018-11-02T02:32:01.329Z,7.48
2018-11-02T02:33:11.301Z,7.47
2018-11-02T02:34:20.760Z,7.46
2018-11-02T02:35:30.756Z,7.5
2018-11-02T02:36:40.545Z,7.4
2018-11-02T02:37:50.001Z,7.43
2018-11-02T02:38:59.720Z,7.36
2018-11-02T02:40:09.706Z,7.53
2018-11-02T02:41:19.413Z,7.4
2018-11-02T02:42:29.388Z,7.43
2018-11-02T02:43:38.860Z,7.36
2018-11-02T02:44:48.571Z,7.32
2018-11-02T02:45:58.312Z,7.32
2018-11-02T02:47:07.228Z,7.39
2018-11-02T02:48:16.932Z,7.36
2018-11-02T02:49:26.378Z,7.28
2018-11-02T02:50:36.997Z,7.29
2018-11-02T02:51:47.247Z,7.39
2018-11-02T02:52:56.702Z,7.39
2018-11-02T02:54:06.675Z,7.28
2018-11-02T02:55:16.133Z,7.29
2018-11-02T02:56:25.970Z,7.33
2018-11-02T02:57:35.985Z,7.31
2018-11-02T02:58:45.970Z,7.33
2018-11-02T02:59:55.676Z,7.22
2018-11-02T03:01:05.165Z,7.36
2018-11-02T03:02:15.147Z,7.31
2018-11-02T03:03:24.877Z,7.31
2018-11-02T03:04:34.597Z,7.28
2018-11-02T03:05:44.308Z,7.36
2018-11-02T03:06:54.267Z,7.32
2018-11-02T03:08:04.256Z,7.39
2018-11-02T03:09:13.972Z,7.39
2018-11-02T03:10:24.071Z,7.39
2018-11-02T03:11:34.004Z,7.36
2018-11-02T03:12:44.335Z,7.41
2018-11-02T03:13:54.088Z,7.33
2018-11-02T03:15:04.446Z,7.48
2018-11-02T03:16:14.438Z,7.53
2018-11-02T03:17:24.444Z,7.39
2018-11-02T03:18:34.073Z,7.46
2018-11-02T03:19:43.456Z,7.41
2018-11-02T03:20:53.435Z,7.5
2018-11-02T03:22:03.426Z,7.46
2018-11-02T03:23:13.132Z,7.51
2018-11-02T03:24:23.126Z,7.51
2018-11-02T03:25:33.146Z,7.53
2018-11-02T03:26:42.860Z,7.56
2018-11-02T03:27:52.582Z,7.59
2018-11-02T03:29:02.043Z,7.62
2018-11-02T03:30:12.042Z,7.61
2018-11-02T03:31:22.073Z,7.67
2018-11-02T03:32:32.102Z,7.66
2018-11-02T03:33:41.811Z,7.69
2018-11-02T03:34:51.820Z,7.62
2018-11-02T03:36:01.538Z,7.64
2018-11-02T03:37:11.861Z,7.64
2018-11-02T03:38:22.184Z,7.59
2018-11-02T03:39:32.492Z,7.61
2018-11-02T03:40:41.954Z,7.61
2018-11-02T03:41:51.659Z,7.59
2018-11-02T03:43:01.379Z,7.55
2018-11-02T03:44:10.822Z,7.51
2018-11-02T03:45:20.287Z,7.48
2018-11-02T03:46:30.277Z,7.53
2018-11-02T03:47:40.273Z,7.48
2018-11-02T03:48:50.246Z,7.47
2018-11-02T03:50:00.033Z,7.46
2018-11-02T03:51:09.841Z,7.39
2018-11-02T03:52:19.624Z,7.33
2018-11-02T03:53:29.364Z,7.33
2018-11-02T03:54:39.217Z,7.39
2018-11-02T03:55:49.199Z,7.31
2018-11-02T03:56:59.222Z,7.36
2018-11-02T03:58:09.223Z,7.37
2018-11-02T03:59:18.988Z,7.39
2018-11-02T04:00:29.821Z,7.36
2018-11-02T04:01:42.147Z,7.36
2018-11-02T04:02:51.869Z,7.37
2018-11-02T04:04:01.591Z,7.36
2018-11-02T04:05:11.297Z,7.36
2018-11-02T04:06:20.778Z,7.29
2018-11-02T04:07:30.796Z,7.28
2018-11-02T04:08:40.871Z,7.28
2018-11-02T04:09:50.880Z,7.26
2018-11-02T04:11:00.854Z,7.32
2018-11-02T04:12:10.838Z,7.32
2018-11-02T04:13:20.292Z,7.28
2018-11-02T04:14:30.264Z,7.33
2018-11-02T04:15:40.236Z,7.36
2018-11-02T04:16:49.449Z,7.28
2018-11-02T04:17:59.449Z,7.37
2018-11-02T04:19:09.420Z,7.26
2018-11-02T04:20:19.135Z,7.28
2018-11-02T04:21:29.118Z,7.33
2018-11-02T04:22:39.027Z,7.26
2018-11-02T04:23:49.200Z,7.31
2018-11-02T04:24:58.632Z,7.29
2018-11-02T04:26:08.607Z,7.25
2018-11-02T04:27:18.585Z,7.26
2018-11-02T04:28:28.027Z,7.32
2018-11-02T04:29:37.462Z,7.31
2018-11-02T04:30:47.432Z,7.22
2018-11-02T04:31:57.563Z,7.29
2018-11-02T04:33:07.297Z,7.18
2018-11-02T04:34:17.295Z,7.33
2018-11-02T04:35:26.725Z,7.19
2018-11-02T04:36:36.727Z,7.22
2018-11-02T04:37:46.436Z,7.22
2018-11-02T04:38:56.145Z,7.19
2018-11-02T04:40:05.857Z,7.21
2018-11-02T04:41:15.576Z,7.19
2018-11-02T04:42:25.270Z,7.22
2018-11-02T04:43:34.729Z,7.21
2018-11-02T04:44:44.203Z,7.23
2018-11-02T04:45:54.182Z,7.21
2018-11-02T04:47:05.003Z,7.32
2018-11-02T04:48:14.765Z,7.33
2018-11-02T04:49:24.596Z,7.29
2018-11-02T04:50:34.302Z,7.32
2018-11-02T04:51:43.768Z,7.28
2018-11-02T04:52:53.781Z,7.36
2018-11-02T04:54:03.767Z,7.32
2018-11-02T04:55:13.741Z,7.37
2018-11-02T04:56:23.697Z,7.55
2018-11-02T04:57:33.698Z,7.46
2018-11-02T04:58:43.409Z,7.48
2018-11-02T04:59:53.125Z,7.39
2018-11-02T05:01:02.855Z,7.53
2018-11-02T05:02:12.583Z,7.41
2018-11-02T05:03:22.379Z,7.51
2018-11-02T05:04:31.843Z,7.48
2018-11-02T05:05:41.556Z,7.5
2018-11-02T05:06:51.620Z,7.48
2018-11-02T05:08:01.358Z,7.47
2018-11-02T05:09:13.195Z,7.4
2018-11-02T05:10:24.126Z,7.46
2018-11-02T05:11:34.118Z,7.44
2018-11-02T05:12:43.603Z,7.46
2018-11-02T05:13:53.104Z,7.43
2018-11-02T05:15:02.544Z,7.43
2018-11-02T05:16:11.990Z,7.4
2018-11-02T05:17:21.451Z,7.5
2018-11-02T05:18:31.190Z,7.37
2018-11-02T05:19:40.986Z,7.32
2018-11-02T05:20:50.986Z,7.41
2018-11-02T05:22:00.716Z,7.36
2018-11-02T05:23:10.707Z,7.32
2018-11-02T05:24:20.644Z,7.33
2018-11-02T05:25:30.359Z,7.41
2018-11-02T05:26:40.330Z,7.41
2018-11-02T05:27:50.070Z,7.36
2018-11-02T05:29:00.091Z,7.33
2018-11-02T05:30:09.808Z,7.48
2018-11-02T05:31:19.807Z,7.5
2018-11-02T05:32:29.833Z,7.44
2018-11-02T05:33:40.770Z,7.46
2018-11-02T05:34:50.959Z,7.44
2018-11-02T05:36:00.734Z,7.5
2018-11-02T05:37:10.725Z,7.48
2018-11-02T05:38:20.447Z,7.61
2018-11-02T05:39:29.907Z,7.53
2018-11-02T05:40:39.893Z,7.56
2018-11-02T05:41:49.881Z,7.51
2018-11-02T05:42:59.310Z,7.53
2018-11-02T05:44:08.788Z,7.58
2018-11-02T05:45:18.494Z,7.53
2018-11-02T05:46:28.204Z,7.59
2018-11-02T05:47:37.126Z,7.59
2018-11-02T05:48:46.851Z,7.58
2018-11-02T05:49:56.325Z,7.62
2018-11-02T05:51:06.320Z,7.61
2018-11-02T05:52:15.774Z,7.61
2018-11-02T05:53:25.202Z,7.58
2018-11-02T05:54:34.705Z,7.58
2018-11-02T05:55:44.406Z,7.58
2018-11-02T05:56:53.881Z,7.66
2018-11-02T05:58:04.096Z,7.56
2018-11-02T05:59:13.789Z,7.53
2018-11-02T06:00:23.488Z,7.55
2018-11-02T06:01:33.492Z,7.51
2018-11-02T06:02:43.459Z,7.5
2018-11-02T06:03:53.444Z,7.56
2018-11-02T06:05:03.484Z,7.58
2018-11-02T06:06:13.200Z,7.55
2018-11-02T06:07:23.178Z,7.53
2018-11-02T06:08:32.915Z,7.46
2018-11-02T06:09:42.893Z,7.5
2018-11-02T06:10:52.429Z,7.53
2018-11-02T06:12:02.140Z,7.55
2018-11-02T06:13:11.849Z,7.55
2018-11-02T06:14:21.840Z,7.61
2018-11-02T06:15:30.747Z,7.56
2018-11-02T06:16:40.571Z,7.62
2018-11-02T06:17:50.920Z,7.53
2018-11-02T06:19:00.679Z,7.58
2018-11-02T06:20:10.712Z,7.58
2018-11-02T06:21:21.008Z,7.58
2018-11-02T06:22:30.739Z,7.58
2018-11-02T06:23:39.931Z,7.56
2018-11-02T06:24:49.390Z,7.61
2018-11-02T06:25:59.144Z,7.61
2018-11-02T06:27:09.132Z,7.56
2018-11-02T06:28:19.152Z,7.59
2018-11-02T06:29:29.132Z,7.64
2018-11-02T06:30:38.758Z,7.62
2018-11-02T06:31:49.110Z,7.62
2018-11-02T06:32:59.085Z,7.64
2018-11-02T06:34:08.815Z,7.64
2018-11-02T06:35:18.548Z,7.59
2018-11-02T06:36:27.996Z,7.66
2018-11-02T06:37:37.971Z,7.64
2018-11-02T06:38:47.336Z,7.61
2018-11-02T06:39:57.945Z,7.62
2018-11-02T06:41:07.719Z,7.59
2018-11-02T06:42:17.464Z,7.67
2018-11-02T06:43:27.520Z,7.64
2018-11-02T06:44:37.216Z,7.64
2018-11-02T06:45:47.052Z,7.67
2018-11-02T06:46:57.027Z,7.62
2018-11-02T06:48:06.741Z,7.59
2018-11-02T06:49:16.474Z,7.62
2018-11-02T06:50:26.235Z,7.59
2018-11-02T06:51:35.692Z,7.61
2018-11-02T06:52:45.138Z,7.64
2018-11-02T06:53:54.579Z,7.59
2018-11-02T06:55:04.086Z,7.59
2018-11-02T06:56:14.067Z,7.64
2018-11-02T06:57:24.051Z,7.59
2018-11-02T06:58:34.040Z,7.64
2018-11-02T06:59:44.871Z,7.67
2018-11-02T07:00:55.305Z,7.61
2018-11-02T07:02:05.287Z,7.8
2018-11-02T07:03:15.274Z,7.66
2018-11-02T07:04:25.097Z,7.69
2018-11-02T07:05:35.493Z,7.69
2018-11-02T07:06:45.572Z,7.75
2018-11-02T07:07:55.691Z,7.74
2018-11-02T07:09:05.752Z,7.74
2018-11-02T07:10:15.235Z,7.77
2018-11-02T07:11:24.940Z,7.69
2018-11-02T07:12:34.702Z,7.81
2018-11-02T07:13:44.208Z,7.84
2018-11-02T07:14:53.904Z,7.81
2018-11-02T07:16:03.892Z,7.77
2018-11-02T07:17:13.336Z,7.75
2018-11-02T07:18:23.072Z,7.8
2018-11-02T07:19:32.520Z,7.9
2018-11-02T07:20:42.507Z,7.75
2018-11-02T07:21:52.330Z,7.81
2018-11-02T07:23:01.790Z,7.9
2018-11-02T07:24:11.497Z,7.9
2018-11-02T07:25:21.703Z,7.85
2018-11-02T07:26:31.818Z,7.85
2018-11-02T07:27:42.240Z,7.87
2018-11-02T07:28:53.231Z,7.95
2018-11-02T07:30:02.974Z,7.98
2018-11-02T07:31:12.419Z,7.96
2018-11-02T07:32:22.135Z,7.99
2018-11-02T07:33:31.881Z,8.02
2018-11-02T07:34:41.901Z,7.99
2018-11-02T07:35:51.355Z,8.05
2018-11-02T07:37:01.088Z,8.05
2018-11-02T07:38:10.843Z,8.08
2018-11-02T07:39:20.881Z,8.11
2018-11-02T07:40:30.593Z,8.16
2018-11-02T07:41:40.039Z,8.17
2018-11-02T07:42:49.752Z,8.17
2018-11-02T07:43:59.502Z,8.32
2018-11-02T07:45:09.507Z,8.32
2018-11-02T07:46:19.242Z,8.38
2018-11-02T07:47:29.424Z,8.49
2018-11-02T07:48:39.948Z,8.57
2018-11-02T07:49:49.448Z,8.69
2018-11-02T07:50:59.810Z,8.66
2018-11-02T07:52:10.014Z,8.79
2018-11-02T07:53:19.737Z,8.84
2018-11-02T07:54:29.238Z,8.9
2018-11-02T07:55:39.062Z,8.87
2018-11-02T07:56:49.055Z,8.96
2018-11-02T07:57:59.054Z,9.12
2018-11-02T07:59:08.832Z,9.12
2018-11-02T08:00:18.634Z,9.12
2018-11-02T08:01:28.336Z,9.24
2018-11-02T08:02:38.107Z,9.3
2018-11-02T08:03:47.876Z,9.29
2018-11-02T08:04:57.929Z,9.36
2018-11-02T08:06:07.655Z,9.4
2018-11-02T08:07:17.123Z,9.44
2018-11-02T08:08:27.098Z,9.44
2018-11-02T08:09:37.080Z,9.55
2018-11-02T08:10:46.802Z,9.52
2018-11-02T08:11:57.033Z,9.67
2018-11-02T08:13:07.021Z,9.82
2018-11-02T08:14:17.401Z,9.9
2018-11-02T08:15:27.098Z,9.92
2018-11-02T08:16:37.037Z,10.09
2018-11-02T08:17:47.403Z,10.21
2018-11-02T08:18:57.878Z,10.13
2018-11-02T08:20:08.198Z,10.07
2018-11-02T08:21:17.883Z,10.24
2018-11-02T08:22:27.851Z,10.28
2018-11-02T08:23:37.558Z,10.38
2018-11-02T08:24:47.376Z,10.55
2018-11-02T08:25:57.312Z,10.61
2018-11-02T08:27:07.066Z,10.71
2018-11-02T08:28:16.763Z,10.87
2018-11-02T08:29:26.689Z,10.92
2018-11-02T08:30:36.639Z,11.13
2018-11-02T08:31:46.348Z,11.12
2018-11-02T08:32:55.820Z,11.13
2018-11-02T08:34:05.499Z,11.18
2018-11-02T08:35:14.937Z,11.18
2018-11-02T08:36:24.630Z,11.13
2018-11-02T08:37:34.333Z,11.23
2018-11-02T08:38:44.289Z,11.19
2018-11-02T08:39:53.732Z,11.22
2018-11-02T08:41:03.433Z,11.23
2018-11-02T08:42:13.157Z,11.15
2018-11-02T08:43:23.108Z,11.26
2018-11-02T08:44:32.833Z,11.08
2018-11-02T08:45:42.828Z,11.08
2018-11-02T08:46:52.533Z,11.13
2018-11-02T08:48:02.509Z,11.13
2018-11-02T08:49:12.467Z,11.12
2018-11-02T08:50:21.909Z,11.22
2018-11-02T08:51:31.887Z,11.25
2018-11-02T08:52:41.603Z,11.27
2018-11-02T08:53:51.285Z,11.4
2018-11-02T08:55:01.261Z,11.48
2018-11-02T08:56:10.965Z,11.52
2018-11-02T08:57:20.656Z,11.6
2018-11-02T08:58:31.315Z,11.63
2018-11-02T08:59:42.731Z,11.8
2018-11-02T09:00:53.128Z,11.76
2018-11-02T09:02:15.612Z,11.89
2018-11-02T09:03:25.347Z,12.02
2018-11-02T09:04:35.308Z,12.05
2018-11-02T09:05:45.312Z,12.1
2018-11-02T09:06:55.256Z,12.15
2018-11-02T09:08:04.437Z,12.26
2018-11-02T09:09:14.399Z,12.29
2018-11-02T09:10:24.108Z,12.3
2018-11-02T09:11:33.804Z,12.51
2018-11-02T09:12:43.509Z,12.55
2018-11-02T09:13:53.620Z,12.47
2018-11-02T09:15:03.322Z,12.51
2018-11-02T09:16:13.017Z,12.69
2018-11-02T09:17:22.474Z,12.8
2018-11-02T09:18:32.639Z,12.83
2018-11-02T09:19:42.858Z,12.95
2018-11-02T09:20:52.555Z,12.84
2018-11-02T09:22:02.006Z,12.93
2018-11-02T09:23:11.967Z,12.93
2018-11-02T09:24:21.975Z,12.88
2018-11-02T09:25:31.948Z,12.95
2018-11-02T09:26:41.908Z,12.69
2018-11-02T09:27:52.000Z,12.51
2018-11-02T09:29:01.773Z,12.58
2018-11-02T09:30:11.233Z,12.54
2018-11-02T09:31:21.194Z,12.37
2018-11-02T09:32:31.164Z,12.32
2018-11-02T09:33:41.111Z,12.33
2018-11-02T09:34:50.591Z,12.37
2018-11-02T09:36:00.320Z,12.37
2018-11-02T09:37:10.335Z,12.45
2018-11-02T09:38:20.051Z,12.43
2018-11-02T09:39:30.075Z,12.45
2018-11-02T09:40:40.093Z,12.39
2018-11-02T09:41:50.123Z,12.29
2018-11-02T09:42:59.868Z,12.25
2018-11-02T09:44:09.608Z,12.26
2018-11-02T09:45:19.366Z,12.39
2018-11-02T09:46:29.651Z,12.36
2018-11-02T09:47:40.090Z,12.4
2018-11-02T09:48:50.060Z,12.53
2018-11-02T09:49:59.006Z,12.51
2018-11-02T09:51:08.754Z,12.62
2018-11-02T09:52:18.581Z,12.76
2018-11-02T09:53:28.325Z,12.72
2018-11-02T09:54:38.336Z,12.76
2018-11-02T09:55:48.314Z,12.76
2018-11-02T09:56:58.318Z,12.8
2018-11-02T09:58:08.078Z,12.8
2018-11-02T09:59:17.835Z,12.84
2018-11-02T10:00:27.565Z,12.88
2018-11-02T10:01:36.765Z,12.93
2018-11-02T10:02:46.516Z,12.91
2018-11-02T10:03:56.756Z,13.02
2018-11-02T10:05:06.465Z,13.08
2018-11-02T10:06:16.184Z,13.13
2018-11-02T10:07:26.249Z,13.24
2018-11-02T10:08:36.178Z,13.43
2018-11-02T10:09:45.627Z,13.46
2018-11-02T10:10:55.789Z,13.5
2018-11-02T10:12:06.166Z,13.47
2018-11-02T10:13:16.601Z,13.54
2018-11-02T10:14:26.588Z,13.62
2018-11-02T10:15:36.320Z,13.67
2018-11-02T10:16:45.780Z,13.6
2018-11-02T10:17:55.528Z,13.6
2018-11-02T10:19:05.531Z,13.64
2018-11-02T10:20:15.276Z,13.64
2018-11-02T10:21:25.018Z,13.8
2018-11-02T10:22:34.776Z,13.76
2018-11-02T10:23:44.788Z,13.78
2018-11-02T10:24:55.199Z,13.83
2018-11-02T10:26:05.205Z,13.91
2018-11-02T10:27:15.227Z,13.93
2018-11-02T10:28:25.331Z,13.98
2018-11-02T10:29:34.807Z,13.93
2018-11-02T10:30:44.829Z,13.91
2018-11-02T10:31:54.567Z,13.94
2018-11-02T10:33:04.329Z,13.89
2018-11-02T10:34:14.063Z,14.08
2018-11-02T10:35:24.339Z,14.08
2018-11-02T10:36:33.933Z,14.11
2018-11-02T10:37:44.159Z,14.01
2018-11-02T10:38:53.925Z,13.94
2018-11-02T10:40:04.012Z,13.91
2018-11-02T10:41:13.457Z,13.89
2018-11-02T10:42:23.741Z,13.71
2018-11-02T10:43:33.758Z,13.76
2018-11-02T10:44:43.649Z,13.67
2018-11-02T10:45:54.130Z,13.62
2018-11-02T10:47:04.004Z,13.65
2018-11-02T10:48:14.026Z,13.67
2018-11-02T10:49:24.445Z,13.55
2018-11-02T10:50:34.863Z,13.43
2018-11-02T10:51:44.605Z,13.5
2018-11-02T10:52:54.343Z,13.47
2018-11-02T10:54:03.809Z,13.54
2018-11-02T10:55:13.549Z,13.64
2018-11-02T10:57:33.276Z,13.67
2018-11-02T10:58:43.511Z,13.65
2018-11-02T10:59:54.078Z,13.6
2018-11-02T11:01:05.710Z,13.55
2018-11-02T11:02:14.935Z,13.5
2018-11-02T11:03:24.674Z,13.6
2018-11-02T11:04:34.699Z,13.5
2018-11-02T11:05:44.425Z,13.46
2018-11-02T11:06:53.903Z,13.52
2018-11-02T11:08:03.894Z,13.5
2018-11-02T11:09:13.908Z,13.58
2018-11-02T11:10:23.428Z,13.45
2018-11-02T11:11:33.087Z,13.47
2018-11-02T11:12:43.816Z,13.42
2018-11-02T11:13:55.827Z,13.45
2018-11-02T11:15:05.556Z,13.45
2018-11-02T11:16:15.292Z,13.46
2018-11-02T11:17:24.761Z,13.49
2018-11-02T11:18:34.225Z,13.55
2018-11-02T11:19:43.955Z,13.47
2018-11-02T11:20:53.971Z,13.5
2018-11-02T11:22:03.995Z,13.45
2018-11-02T11:23:13.966Z,13.49
2018-11-02T11:24:23.803Z,13.4
2018-11-02T11:25:34.026Z,13.36
2018-11-02T11:26:43.773Z,13.37
2018-11-02T11:27:53.798Z,13.42
2018-11-02T11:29:03.617Z,13.54
2018-11-02T11:30:13.439Z,13.46
2018-11-02T11:31:22.940Z,13.5
2018-11-02T11:32:32.428Z,13.55
2018-11-02T11:33:42.194Z,13.55
2018-11-02T11:34:52.207Z,13.6
2018-11-02T11:36:01.958Z,13.6
2018-11-02T11:37:11.986Z,13.57
2018-11-02T11:38:21.528Z,13.55
2018-11-02T11:39:31.165Z,13.58
2018-11-02T11:40:41.145Z,13.62
2018-11-02T11:41:50.874Z,13.7
2018-11-02T11:43:00.623Z,13.79
2018-11-02T11:44:09.841Z,13.85
2018-11-02T11:45:19.601Z,13.91
2018-11-02T11:46:29.094Z,14.04
2018-11-02T11:47:38.848Z,13.95
2018-11-02T11:48:50.044Z,14
2018-11-02T11:50:00.800Z,14
2018-11-02T11:51:10.873Z,14.05
2018-11-02T11:52:20.644Z,14.28
2018-11-02T11:53:30.648Z,14.28
2018-11-02T11:54:40.892Z,14.43
2018-11-02T11:55:50.304Z,14.59
2018-11-02T11:57:00.077Z,15
2018-11-02T11:58:09.565Z,15.3
2018-11-02T11:59:19.574Z,15.41
2018-11-02T12:00:29.057Z,15.39
2018-11-02T12:01:39.076Z,15.5
2018-11-02T12:02:49.098Z,15.6
2018-11-02T12:03:58.587Z,15.51
2018-11-02T12:05:08.506Z,15.57
2018-11-02T12:06:18.265Z,15.69
2018-11-02T12:07:28.072Z,15.66
2018-11-02T12:08:38.286Z,15.52
2018-11-02T12:09:48.041Z,15.45
2018-11-02T12:10:57.812Z,15.48
2018-11-02T12:12:08.054Z,15.5
2018-11-02T12:13:18.027Z,15.81
2018-11-02T12:14:27.830Z,16.02
2018-11-02T12:15:37.867Z,16.24
2018-11-02T12:16:47.694Z,16.24
2018-11-02T12:17:57.454Z,16.24
2018-11-02T12:19:06.924Z,16.06
2018-11-02T12:20:16.937Z,16.26
2018-11-02T12:21:26.744Z,15.96
2018-11-02T12:22:36.499Z,15.83
2018-11-02T12:23:46.272Z,15.62
2018-11-02T12:24:56.035Z,15.48
2018-11-02T12:26:05.764Z,15.41
2018-11-02T12:27:15.232Z,15.44
2018-11-02T12:28:25.642Z,15.44
2018-11-02T12:29:35.928Z,15.39
2018-11-02T12:30:46.247Z,15.63
2018-11-02T12:31:56.071Z,15.76
2018-11-02T12:33:05.811Z,15.92
2018-11-02T12:34:15.561Z,16.08
2018-11-02T12:35:25.106Z,16.21
2018-11-02T12:36:35.456Z,16.17
2018-11-02T12:37:46.002Z,16.28
2018-11-02T12:38:56.011Z,16.21
2018-11-02T12:40:05.756Z,16.13
2018-11-02T12:41:15.769Z,16.09
2018-11-02T12:42:25.792Z,15.99
2018-11-02T12:43:35.988Z,16
2018-11-02T12:44:46.275Z,16.06
2018-11-02T12:45:56.318Z,16.25
2018-11-02T12:47:06.067Z,16.37
2018-11-02T12:48:16.320Z,16.46
2018-11-02T12:49:27.307Z,16.46
2018-11-02T12:50:37.969Z,16.41
2018-11-02T12:51:48.238Z,16.4
2018-11-02T12:52:58.328Z,16.41
2018-11-02T12:54:07.762Z,16.51
2018-11-02T12:55:17.513Z,16.62
2018-11-02T12:56:27.271Z,16.76
2018-11-02T12:57:38.368Z,16.87
2018-11-02T12:58:49.320Z,16.97
2018-11-02T12:59:59.064Z,17.16
2018-11-02T13:01:08.551Z,17.17
2018-11-02T13:02:18.017Z,17.22
2018-11-02T13:03:27.806Z,17.27
2018-11-02T13:04:37.827Z,17.23
2018-11-02T13:05:47.575Z,17.38
2018-11-02T13:06:57.597Z,17.31
2018-11-02T13:08:07.349Z,17.07
2018-11-02T13:09:17.323Z,17.05
2018-11-02T13:10:27.320Z,17.12
2018-11-02T13:11:37.049Z,16.95
2018-11-02T13:12:46.793Z,17.02
2018-11-02T13:13:56.544Z,16.92
2018-11-02T13:15:06.563Z,16.84
2018-11-02T13:16:16.924Z,17.09
2018-11-02T13:17:26.808Z,17.17
2018-11-02T13:18:37.371Z,17.19
2018-11-02T13:19:48.005Z,17.37
2018-11-02T13:20:58.079Z,17.35
2018-11-02T13:22:07.948Z,17.14
2018-11-02T13:23:17.246Z,16.98
2018-11-02T13:24:27.268Z,16.5
2018-11-02T13:25:37.449Z,16.32
2018-11-02T13:26:47.713Z,15.76
2018-11-02T13:27:57.194Z,15.57
2018-11-02T13:29:07.204Z,15.5
2018-11-02T13:30:17.312Z,15.43
2018-11-02T13:31:27.352Z,15.23
2018-11-02T13:32:37.772Z,15.19
2018-11-02T13:33:47.798Z,15.11
2018-11-02T13:34:57.778Z,15
2018-11-02T13:36:07.614Z,15.04
2018-11-02T13:37:17.876Z,14.9
2018-11-02T13:38:27.733Z,14.87
2018-11-02T13:39:37.757Z,14.77
2018-11-02T13:40:47.797Z,14.74
2018-11-02T13:41:58.388Z,14.68
2018-11-02T13:43:09.170Z,14.68
2018-11-02T13:44:19.496Z,14.62
2018-11-02T13:45:29.235Z,14.63
2018-11-02T13:46:38.957Z,14.63
2018-11-02T13:47:48.955Z,14.53
2018-11-02T13:48:58.935Z,14.59
2018-11-02T13:50:08.509Z,14.78
2018-11-02T13:51:18.734Z,14.89
2018-11-02T13:52:28.755Z,15
2018-11-02T13:53:38.789Z,15.15
2018-11-02T13:54:48.998Z,15.17
2018-11-02T13:55:58.196Z,15.19
2018-11-02T13:57:08.200Z,15.39
2018-11-02T13:58:17.947Z,15.43
2018-11-02T13:59:27.451Z,15.48
2018-11-02T14:00:37.612Z,15.63
2018-11-02T14:01:47.082Z,15.7
2018-11-02T14:02:56.645Z,15.84
2018-11-02T14:04:06.239Z,15.78
2018-11-02T14:05:17.265Z,15.76
2018-11-02T14:06:27.586Z,15.48
2018-11-02T14:07:37.054Z,15.47
2018-11-02T14:08:47.077Z,15.43
2018-11-02T14:09:57.122Z,15.47
2018-11-02T14:11:06.927Z,15.55
2018-11-02T14:12:16.658Z,15.75
2018-11-02T14:13:26.408Z,15.87
2018-11-02T14:14:36.138Z,16
2018-11-02T14:15:46.154Z,16
2018-11-02T14:16:55.642Z,16.02
2018-11-02T14:18:05.418Z,16.05
2018-11-02T14:19:15.553Z,16.06
2018-11-02T14:20:25.651Z,16.28
2018-11-02T14:21:35.432Z,16.34
2018-11-02T14:22:45.198Z,16.41
2018-11-02T14:23:55.207Z,16.54
2018-11-02T14:25:05.210Z,16.5
2018-11-02T14:26:14.962Z,16.62
2018-11-02T14:27:24.702Z,16.73
2018-11-02T14:28:34.673Z,16.69
2018-11-02T14:29:45.398Z,16.8
2018-11-02T14:30:55.168Z,16.74
2018-11-02T14:32:04.946Z,16.5
2018-11-02T14:33:14.416Z,16.46
2018-11-02T14:34:24.451Z,16.26
2018-11-02T14:35:34.468Z,16.09
2018-11-02T14:36:44.280Z,15.88
2018-11-02T14:37:54.320Z,16.02
2018-11-02T14:39:03.797Z,15.73
2018-11-02T14:40:13.563Z,15.59
2018-11-02T14:41:23.067Z,15.55
2018-11-02T14:42:33.069Z,15.45
2018-11-02T14:43:42.809Z,15.27
2018-11-02T14:44:52.824Z,15.17
2018-11-02T14:46:02.308Z,15.04
2018-11-02T14:47:12.053Z,15.05
2018-11-02T14:48:21.801Z,14.94
2018-11-02T14:49:31.292Z,15
2018-11-02T14:50:41.033Z,15.04
2018-11-02T14:51:51.089Z,15.05
2018-11-02T14:53:01.978Z,15.1
2018-11-02T14:54:12.090Z,15.07
2018-11-02T14:55:22.208Z,15.11
2018-11-02T14:56:32.205Z,15.14
2018-11-02T14:57:42.231Z,14.97
2018-11-02T14:58:52.271Z,14.96
2018-11-02T15:00:02.349Z,14.99
2018-11-02T15:01:11.863Z,14.94
2018-11-02T15:02:21.305Z,14.87
2018-11-02T15:03:31.326Z,14.9
2018-11-02T15:04:41.071Z,14.92
2018-11-02T15:05:50.542Z,14.9
2018-11-02T15:07:00.297Z,14.9
2018-11-02T15:08:10.519Z,14.87
2018-11-02T15:09:20.710Z,14.85
2018-11-02T15:10:29.921Z,14.78
2018-11-02T15:11:39.796Z,14.66
2018-11-02T15:12:49.291Z,14.52
2018-11-02T15:13:59.294Z,14.48
2018-11-02T15:15:09.042Z,14.43
2018-11-02T15:16:19.104Z,14.34
2018-11-02T15:17:29.772Z,14.2
2018-11-02T15:18:40.380Z,14.16
2018-11-02T15:19:50.138Z,14.12
2018-11-02T15:21:00.166Z,14.05